Time;durP1;ratioP1;P1;durP2;ratioP2;P2;SDS_P1;SDS_P2;PMS_P1;PMS_P2;Temp;Humidity;BMP_temperature;BMP_pressure;BME280_temperature;BME280_humidity;BME280_pressure;Samples;Min_cycle;Max_cycle;Signal;HPM_P1;HPM_P2
2023/12/27 00:02:01;;;;;;;22.83;7.60;;;6.80;81.20;;;;;;5050151;28;20388;-74
2023/12/27 00:04:27;;;;;;;23.33;7.63;;;6.70;82.00;;;;;;5049949;28;20421;-73
2023/12/27 00:06:54;;;;;;;20.95;7.35;;;6.70;83.40;;;;;;5050138;28;20392;-72
2023/12/27 00:09:19;;;;;;;25.13;8.10;;;6.70;83.10;;;;;;5050427;28;20397;-73
2023/12/27 00:11:45;;;;;;;27.65;7.60;;;6.70;84.40;;;;;;5032619;28;20393;-73
2023/12/27 00:14:10;;;;;;;24.38;8.40;;;6.50;85.10;;;;;;5050138;28;20483;-72
2023/12/27 00:16:36;;;;;;;21.92;7.50;;;6.70;84.80;;;;;;5049904;28;20460;-72
2023/12/27 00:19:02;;;;;;;27.20;8.00;;;6.70;84.90;;;;;;5049852;28;20386;-73
2023/12/27 00:21:28;;;;;;;21.90;7.53;;;6.80;84.50;;;;;;5050446;28;20903;-74
2023/12/27 00:23:54;;;;;;;27.00;7.33;;;6.80;81.90;;;;;;5050780;28;20385;-72
2023/12/27 00:26:20;;;;;;;35.80;8.18;;;6.70;83.40;;;;;;5049657;28;20787;-72
2023/12/27 00:28:45;;;;;;;29.80;7.90;;;6.60;84.20;;;;;;5049794;28;20385;-73
2023/12/27 00:31:11;;;;;;;27.45;8.35;;;6.50;84.70;;;;;;5050327;28;20740;-73
2023/12/27 00:33:37;;;;;;;28.10;8.45;;;6.30;86.00;;;;;;5049967;28;20948;-73
2023/12/27 00:36:04;;;;;;;23.08;7.30;;;6.50;88.90;;;;;;5050026;28;20403;-73
2023/12/27 00:38:29;;;;;;;31.83;8.45;;;6.70;84.90;;;;;;5050061;28;20733;-73
2023/12/27 00:40:55;;;;;;;28.03;8.73;;;6.50;85.90;;;;;;5050082;28;20388;-73
2023/12/27 00:43:20;;;;;;;27.50;8.00;;;6.30;87.60;;;;;;5051154;28;20907;-74
2023/12/27 00:45:46;;;;;;;30.93;8.03;;;6.20;89.50;;;;;;5051264;28;20385;-73
2023/12/27 00:48:11;;;;;;;26.17;7.77;;;6.20;89.00;;;;;;5050358;28;20583;-74
2023/12/27 00:50:37;;;;;;;24.73;7.23;;;6.10;90.20;;;;;;5050701;28;20421;-74
2023/12/27 00:53:03;;;;;;;24.60;7.50;;;5.90;90.80;;;;;;5050228;28;20408;-72
2023/12/27 00:55:29;;;;;;;34.45;8.30;;;5.90;91.60;;;;;;5049806;28;20442;-74
2023/12/27 00:57:54;;;;;;;26.48;7.75;;;5.80;92.40;;;;;;5050134;28;20886;-74
2023/12/27 01:00:20;;;;;;;30.27;6.70;;;5.80;93.50;;;;;;5049899;28;20416;-73
2023/12/27 01:02:45;;;;;;;30.13;7.72;;;5.80;94.70;;;;;;5049778;28;20467;-73
2023/12/27 01:05:11;;;;;;;25.00;7.20;;;5.80;94.70;;;;;;5049356;28;20539;-74
2023/12/27 01:07:37;;;;;;;36.80;8.23;;;5.90;94.10;;;;;;5049661;28;20762;-74
2023/12/27 01:10:03;;;;;;;22.58;8.02;;;5.80;94.00;;;;;;5050993;28;20417;-73
2023/12/27 01:12:29;;;;;;;25.20;7.82;;;5.70;95.00;;;;;;5053032;28;20395;-73
2023/12/27 01:14:55;;;;;;;30.60;7.75;;;5.70;95.80;;;;;;5052886;28;20449;-74
2023/12/27 01:17:20;;;;;;;19.13;7.30;;;5.70;96.40;;;;;;5052833;28;20418;-73
2023/12/27 01:19:46;;;;;;;27.83;7.50;;;5.70;96.90;;;;;;5053785;28;20788;-74
2023/12/27 01:22:11;;;;;;;22.37;7.30;;;5.70;97.00;;;;;;5053504;28;20377;-72
2023/12/27 01:24:37;;;;;;;23.60;8.70;;;5.80;96.60;;;;;;5053577;28;20385;-74
2023/12/27 01:27:03;;;;;;;25.33;7.87;;;5.80;96.60;;;;;;5052920;28;20377;-74
2023/12/27 01:29:29;;;;;;;30.35;8.43;;;5.80;96.20;;;;;;5053389;28;20895;-73
2023/12/27 01:31:55;;;;;;;23.40;7.80;;;5.80;96.20;;;;;;5035319;28;20531;-73
2023/12/27 01:34:20;;;;;;;22.20;8.23;;;5.80;95.20;;;;;;5053491;28;20401;-73
2023/12/27 01:36:46;;;;;;;21.07;7.03;;;5.70;95.00;;;;;;5053732;28;20772;-73
2023/12/27 01:39:11;;;;;;;21.40;7.53;;;5.70;94.30;;;;;;5052993;28;20462;-72
2023/12/27 01:41:37;;;;;;;32.67;8.60;;;5.70;95.30;;;;;;5052608;28;20407;-73
2023/12/27 01:44:03;;;;;;;22.33;8.10;;;5.60;95.10;;;;;;5052929;28;20698;-73
2023/12/27 01:46:30;;;;;;;23.02;7.60;;;5.60;95.90;;;;;;5052793;28;20401;-74
2023/12/27 01:48:56;;;;;;;21.00;8.05;;;5.50;95.80;;;;;;5052450;28;20871;-73
2023/12/27 01:51:22;;;;;;;31.48;7.18;;;5.60;95.50;;;;;;5052316;28;20428;-74
2023/12/27 01:53:49;;;;;;;37.53;8.80;;;5.60;95.00;;;;;;5052688;28;20412;-74
2023/12/27 01:56:14;;;;;;;27.80;9.40;;;5.60;94.90;;;;;;5017638;28;20482;-73
2023/12/27 01:58:40;;;;;;;26.93;8.43;;;5.50;95.50;;;;;;5052047;28;20413;-72
2023/12/27 02:01:05;;;;;;;27.27;7.20;;;5.50;95.50;;;;;;5052163;28;20474;-73
2023/12/27 02:03:31;;;;;;;26.90;8.47;;;5.50;95.30;;;;;;5053336;28;20377;-74
2023/12/27 02:05:58;;;;;;;27.73;9.27;;;5.40;96.00;;;;;;5052442;28;20751;-73
2023/12/27 02:08:24;;;;;;;20.77;8.32;;;5.50;96.80;;;;;;5034069;28;20393;-74
2023/12/27 02:10:50;;;;;;;27.80;8.38;;;5.40;96.80;;;;;;5051783;28;20492;-73
2023/12/27 02:13:15;;;;;;;23.97;8.20;;;5.40;95.70;;;;;;5052006;28;20892;-74
2023/12/27 02:15:41;;;;;;;19.70;8.33;;;5.40;96.80;;;;;;5051601;28;20803;-73
2023/12/27 02:18:09;;;;;;;33.87;8.33;;;5.40;97.10;;;;;;5052656;28;20981;-73
2023/12/27 02:20:35;;;;;;;24.42;8.35;;;5.40;96.80;;;;;;5053488;28;20385;-73
2023/12/27 02:23:06;;;;;;;25.25;8.85;;;5.40;96.30;;;;;;5053820;28;20906;-73
2023/12/27 02:25:32;;;;;;;24.10;9.13;;;5.40;96.40;;;;;;5052677;28;20428;-73
2023/12/27 02:27:58;;;;;;;30.98;9.15;;;5.30;96.40;;;;;;5053136;28;20396;-72
2023/12/27 02:30:24;;;;;;;27.80;8.60;;;5.30;95.90;;;;;;5053570;28;20456;-73
2023/12/27 02:32:50;;;;;;;29.23;8.00;;;5.30;96.40;;;;;;5053469;28;21086;-74
2023/12/27 02:35:17;;;;;;;32.10;8.63;;;5.30;96.80;;;;;;5071670;22;20672;-73
2023/12/27 02:37:42;;;;;;;22.77;7.93;;;5.30;96.10;;;;;;5072295;28;20444;-73
2023/12/27 02:40:09;;;;;;;28.43;8.23;;;5.40;95.90;;;;;;5053949;28;20775;-72
2023/12/27 02:42:39;;;;;;;21.35;8.20;;;5.40;94.60;;;;;;5071764;28;20380;-72
2023/12/27 02:45:06;;;;;;;27.35;8.75;;;5.40;95.00;;;;;;5072074;28;20432;-72
2023/12/27 02:47:32;;;;;;;24.30;8.30;;;5.40;95.50;;;;;;5073240;28;20376;-72
2023/12/27 02:49:57;;;;;;;23.03;8.90;;;5.40;94.70;;;;;;5072135;28;20463;-72
2023/12/27 02:52:23;;;;;;;25.43;7.60;;;5.30;95.00;;;;;;5071677;28;20383;-71
2023/12/27 02:54:48;;;;;;;27.50;7.70;;;5.30;95.70;;;;;;5071335;28;20379;-71
2023/12/27 02:57:14;;;;;;;21.40;7.17;;;5.30;94.90;;;;;;5072938;28;20435;-73
2023/12/27 02:59:39;;;;;;;24.07;6.73;;;5.30;93.50;;;;;;5071111;28;20380;-73
2023/12/27 03:02:05;;;;;;;19.43;7.20;;;5.30;92.10;;;;;;5071650;28;20400;-72
2023/12/27 03:04:31;;;;;;;23.67;7.07;;;5.20;92.90;;;;;;5071446;28;20396;-71
2023/12/27 03:06:56;;;;;;;23.50;6.50;;;5.20;93.10;;;;;;5071375;28;20466;-72
2023/12/27 03:09:22;;;;;;;25.73;6.75;;;5.20;93.40;;;;;;5071740;28;20453;-73
2023/12/27 03:11:47;;;;;;;23.35;6.57;;;5.20;94.10;;;;;;5071236;28;20433;-73
2023/12/27 03:14:14;;;;;;;17.48;6.50;;;5.20;94.90;;;;;;5071393;28;20375;-73
2023/12/27 03:16:40;;;;;;;23.38;6.55;;;5.20;94.50;;;;;;5071846;28;20406;-72
2023/12/27 03:19:05;;;;;;;18.73;6.78;;;5.30;93.90;;;;;;5074536;28;20383;-73
2023/12/27 03:21:31;;;;;;;18.97;6.93;;;5.30;93.50;;;;;;5072276;28;20467;-72
2023/12/27 03:23:57;;;;;;;21.90;6.70;;;5.30;94.20;;;;;;5073235;28;20392;-73
2023/12/27 03:26:22;;;;;;;19.30;6.07;;;5.30;94.00;;;;;;5070985;28;20415;-74
2023/12/27 03:28:48;;;;;;;18.43;5.90;;;5.30;92.50;;;;;;5071898;28;20399;-73
2023/12/27 03:31:13;;;;;;;25.70;6.63;;;5.30;92.60;;;;;;5055285;28;20388;-72
2023/12/27 03:33:39;;;;;;;19.90;5.90;;;5.30;92.30;;;;;;5072611;28;20490;-72
2023/12/27 03:36:05;;;;;;;16.50;6.20;;;5.30;92.80;;;;;;5070093;28;20395;-72
2023/12/27 03:38:30;;;;;;;26.63;6.90;;;5.30;93.00;;;;;;5070403;28;20507;-71
2023/12/27 03:40:56;;;;;;;19.33;5.53;;;5.30;92.70;;;;;;5070253;28;20383;-72
2023/12/27 03:43:21;;;;;;;19.85;6.43;;;5.30;90.60;;;;;;5070802;28;20387;-72
2023/12/27 03:45:49;;;;;;;25.20;6.35;;;5.30;91.60;;;;;;5052444;28;20434;-72
2023/12/27 03:48:15;;;;;;;18.75;6.20;;;5.30;91.00;;;;;;5070909;28;20470;-73
2023/12/27 03:50:40;;;;;;;22.83;6.30;;;5.30;91.60;;;;;;5070489;28;20821;-73
2023/12/27 03:53:06;;;;;;;20.67;6.70;;;5.30;90.90;;;;;;5070360;28;20383;-73
2023/12/27 03:55:31;;;;;;;19.50;5.97;;;5.30;90.90;;;;;;5070196;28;20394;-72
2023/12/27 03:57:57;;;;;;;19.90;5.53;;;5.30;90.40;;;;;;5070133;28;20551;-73
2023/12/27 04:00:23;;;;;;;18.93;6.47;;;5.30;90.00;;;;;;5070105;28;20848;-72
2023/12/27 04:02:48;;;;;;;21.37;5.87;;;5.20;91.60;;;;;;5070117;28;20401;-72
2023/12/27 04:05:14;;;;;;;21.13;6.10;;;5.20;91.30;;;;;;5070001;28;20415;-72
2023/12/27 04:07:39;;;;;;;22.80;6.10;;;5.20;91.90;;;;;;5070123;28;20878;-73
2023/12/27 04:10:06;;;;;;;22.53;6.40;;;5.30;92.30;;;;;;5069954;28;20506;-72
2023/12/27 04:12:31;;;;;;;24.13;6.22;;;5.30;91.90;;;;;;5069967;28;20392;-72
2023/12/27 04:14:57;;;;;;;22.13;6.53;;;5.40;92.20;;;;;;5069845;28;20885;-72
2023/12/27 04:17:23;;;;;;;20.80;6.30;;;5.40;91.90;;;;;;5052021;28;20908;-73
2023/12/27 04:19:48;;;;;;;24.83;6.30;;;5.50;90.80;;;;;;5069858;28;20391;-73
2023/12/27 04:22:14;;;;;;;21.30;6.13;;;5.50;89.80;;;;;;5070011;28;20386;-72
2023/12/27 04:24:39;;;;;;;17.60;5.50;;;5.50;88.90;;;;;;5070047;28;20473;-73
2023/12/27 04:27:05;;;;;;;16.83;6.00;;;5.70;86.60;;;;;;5069683;28;20418;-72
2023/12/27 04:29:30;;;;;;;17.27;5.67;;;5.70;86.20;;;;;;5070075;28;20853;-72
2023/12/27 04:31:56;;;;;;;19.10;5.90;;;5.80;85.40;;;;;;5069855;28;20388;-72
2023/12/27 04:34:22;;;;;;;22.67;6.33;;;5.80;85.70;;;;;;5051908;28;20449;-73
2023/12/27 04:36:47;;;;;;;16.83;5.40;;;5.90;84.00;;;;;;5069415;28;20407;-72
2023/12/27 04:39:13;;;;;;;22.13;5.97;;;5.90;83.30;;;;;;5070083;28;20880;-73
2023/12/27 04:41:39;;;;;;;21.23;5.90;;;6.00;81.50;;;;;;5069759;28;20751;-72
2023/12/27 04:44:05;;;;;;;18.67;5.30;;;6.10;80.90;;;;;;5069965;28;20392;-73
2023/12/27 04:46:30;;;;;;;15.17;5.13;;;6.20;80.00;;;;;;5073308;28;20487;-72
2023/12/27 04:48:56;;;;;;;16.60;4.90;;;6.30;78.70;;;;;;5073449;28;20939;-73
2023/12/27 04:51:22;;;;;;;16.03;4.60;;;6.30;77.90;;;;;;5073404;28;20383;-73
2023/12/27 04:53:47;;;;;;;17.43;5.20;;;6.40;74.30;;;;;;5073243;28;20387;-71
2023/12/27 04:56:16;;;;;;;16.50;5.20;;;6.40;74.70;;;;;;5073167;28;20384;-71
2023/12/27 04:58:41;;;;;;;13.73;5.53;;;6.40;75.70;;;;;;5073415;28;20471;-71
2023/12/27 05:01:07;;;;;;;15.37;4.50;;;6.50;75.30;;;;;;5073405;28;20470;-71
2023/12/27 05:03:35;;;;;;;16.80;4.65;;;6.50;73.20;;;;;;5073182;28;20376;-72
2023/12/27 05:06:01;;;;;;;11.98;4.72;;;6.40;74.00;;;;;;5073162;28;20463;-71
2023/12/27 05:08:27;;;;;;;14.50;4.70;;;6.50;74.20;;;;;;5073354;28;20411;-72
2023/12/27 05:10:56;;;;;;;16.45;4.68;;;6.50;72.00;;;;;;5073305;28;20854;-71
2023/12/27 05:13:21;;;;;;;16.10;4.80;;;6.50;71.00;;;;;;5055358;28;20430;-72
2023/12/27 05:15:47;;;;;;;15.05;4.38;;;6.60;71.60;;;;;;5055256;28;20836;-72
2023/12/27 05:18:13;;;;;;;17.90;4.60;;;6.60;70.30;;;;;;5073593;28;20427;-72
2023/12/27 05:20:39;;;;;;;17.10;4.85;;;6.60;70.20;;;;;;5074079;28;20877;-72
2023/12/27 05:23:05;;;;;;;17.83;4.80;;;6.70;69.60;;;;;;5073210;28;20449;-72
2023/12/27 05:25:30;;;;;;;16.45;4.78;;;6.70;70.90;;;;;;5072852;28;20375;-72
2023/12/27 05:27:56;;;;;;;26.20;4.90;;;6.70;70.80;;;;;;5072587;28;20766;-72
2023/12/27 05:30:21;;;;;;;17.63;4.78;;;6.80;69.30;;;;;;5073038;28;20392;-72
2023/12/27 05:32:47;;;;;;;17.83;4.80;;;6.80;70.10;;;;;;5072923;28;20823;-72
2023/12/27 05:35:12;;;;;;;15.50;4.40;;;6.80;69.40;;;;;;5072428;28;20444;-72
2023/12/27 05:37:38;;;;;;;22.30;5.40;;;6.90;69.20;;;;;;5054695;28;20507;-72
2023/12/27 05:40:05;;;;;;;17.17;4.43;;;7.00;68.70;;;;;;5072617;28;20746;-71
2023/12/27 05:42:30;;;;;;;20.53;5.27;;;7.00;67.70;;;;;;5054562;28;20882;-72
2023/12/27 05:44:56;;;;;;;15.40;5.00;;;7.00;68.40;;;;;;5072480;28;20433;-71
2023/12/27 05:47:22;;;;;;;18.53;5.03;;;7.10;68.80;;;;;;5072485;28;20468;-72
2023/12/27 05:49:48;;;;;;;14.15;3.95;;;7.10;67.10;;;;;;5072293;28;20391;-72
2023/12/27 05:52:13;;;;;;;19.57;5.50;;;7.10;67.20;;;;;;5054666;28;20399;-72
2023/12/27 05:54:39;;;;;;;16.50;4.50;;;7.20;68.10;;;;;;5072261;28;20929;-72
2023/12/27 05:57:04;;;;;;;16.30;4.70;;;7.20;68.10;;;;;;5071587;28;20894;-71
2023/12/27 05:59:30;;;;;;;21.25;5.10;;;7.10;67.10;;;;;;5072427;28;20391;-71
2023/12/27 06:01:55;;;;;;;17.90;5.30;;;7.20;67.40;;;;;;5071177;28;20375;-71
2023/12/27 06:04:21;;;;;;;23.88;5.35;;;7.20;68.60;;;;;;5053128;28;20382;-74
2023/12/27 06:06:51;;;;;;;15.70;4.60;;;7.30;68.80;;;;;;5052944;28;20389;-73
2023/12/27 06:09:17;;;;;;;14.95;4.43;;;7.40;67.40;;;;;;5052075;28;20412;-71
2023/12/27 06:11:43;;;;;;;21.10;4.57;;;7.30;67.70;;;;;;5061204;28;20402;-71
2023/12/27 06:14:09;;;;;;;18.17;4.60;;;7.30;67.50;;;;;;5054856;28;20388;-72
2023/12/27 06:16:35;;;;;;;12.10;4.60;;;7.40;68.10;;;;;;5056083;28;20764;-73
2023/12/27 06:19:01;;;;;;;20.67;4.83;;;7.40;68.10;;;;;;5053146;28;20389;-73
2023/12/27 06:21:27;;;;;;;16.15;4.60;;;7.40;67.40;;;;;;5053122;28;20412;-73
2023/12/27 06:23:52;;;;;;;15.95;5.25;;;7.50;67.30;;;;;;5034144;28;20386;-72
2023/12/27 06:26:18;;;;;;;18.57;6.37;;;7.50;68.50;;;;;;5053042;28;20423;-72
2023/12/27 06:28:44;;;;;;;20.23;7.30;;;7.50;67.80;;;;;;5065467;28;20410;-72
2023/12/27 06:31:10;;;;;;;17.23;5.60;;;7.50;68.10;;;;;;5061199;28;20833;-72
2023/12/27 06:33:35;;;;;;;21.23;6.40;;;7.50;69.10;;;;;;5072824;28;20388;-72
2023/12/27 06:36:01;;;;;;;16.58;5.22;;;7.50;68.90;;;;;;5082834;28;20391;-72
2023/12/27 06:38:28;;;;;;;17.52;6.60;;;7.60;67.20;;;;;;5083634;28;20412;-72
2023/12/27 06:40:54;;;;;;;13.35;5.60;;;7.60;69.20;;;;;;5081992;28;20375;-71
2023/12/27 06:43:21;;;;;;;13.38;5.05;;;7.70;68.80;;;;;;5083677;28;20399;-70
2023/12/27 06:45:46;;;;;;;14.88;5.20;;;7.70;68.00;;;;;;5078296;28;20380;-71
2023/12/27 06:48:12;;;;;;;16.60;5.80;;;7.70;66.70;;;;;;5071434;28;20900;-71
2023/12/27 06:50:38;;;;;;;17.95;5.80;;;7.70;67.30;;;;;;5071734;28;20933;-71
2023/12/27 06:53:03;;;;;;;16.05;5.45;;;7.70;67.90;;;;;;5071232;28;20433;-71
2023/12/27 06:55:30;;;;;;;18.58;7.15;;;7.70;68.30;;;;;;5071533;28;20419;-71
2023/12/27 06:57:55;;;;;;;14.48;6.18;;;7.80;69.40;;;;;;5080783;28;20399;-71
2023/12/27 07:00:21;;;;;;;17.77;6.50;;;7.90;69.40;;;;;;5083953;28;20463;-71
2023/12/27 07:02:47;;;;;;;15.33;5.63;;;7.80;68.30;;;;;;5082702;28;20383;-71
2023/12/27 07:05:12;;;;;;;16.17;6.53;;;7.70;69.40;;;;;;5081692;28;20383;-71
2023/12/27 07:07:38;;;;;;;20.57;6.57;;;7.80;70.20;;;;;;5078619;28;20372;-71
2023/12/27 07:10:06;;;;;;;19.50;6.90;;;7.80;69.90;;;;;;5070613;28;20862;-71
2023/12/27 07:12:31;;;;;;;16.58;6.65;;;7.80;70.70;;;;;;5071299;28;20383;-71
2023/12/27 07:14:58;;;;;;;16.05;6.30;;;7.90;72.10;;;;;;5071147;28;20395;-71
2023/12/27 07:17:24;;;;;;;14.38;6.70;;;7.90;71.30;;;;;;5070915;28;20898;-71
2023/12/27 07:19:49;;;;;;;15.25;5.72;;;7.90;71.30;;;;;;5070409;28;20433;-71
2023/12/27 07:22:15;;;;;;;13.95;6.57;;;8.00;71.40;;;;;;5070517;28;20414;-71
2023/12/27 07:24:41;;;;;;;14.68;5.80;;;7.90;71.10;;;;;;5070548;28;20376;-71
2023/12/27 07:27:07;;;;;;;14.23;6.07;;;8.00;70.60;;;;;;5070203;28;20479;-71
2023/12/27 07:29:36;;;;;;;19.30;7.37;;;8.00;72.20;;;;;;5070635;28;20410;-71
2023/12/27 07:32:05;;;;;;;18.17;6.85;;;8.00;73.60;;;;;;5070440;28;20877;-71
2023/12/27 07:34:32;;;;;;;15.95;7.13;;;8.00;74.40;;;;;;5070276;28;20388;-71
2023/12/27 07:36:57;;;;;;;19.83;8.02;;;8.00;76.70;;;;;;5070059;28;20404;-71
2023/12/27 07:39:23;;;;;;;17.70;7.30;;;8.00;77.80;;;;;;5070414;28;20939;-71
2023/12/27 07:41:48;;;;;;;15.73;7.47;;;8.00;80.20;;;;;;5070199;28;20399;-71
2023/12/27 07:44:15;;;;;;;10.13;6.32;;;8.10;81.00;;;;;;5070453;28;20383;-71
2023/12/27 07:46:41;;;;;;;18.10;7.60;;;8.00;82.40;;;;;;5069808;28;20381;-71
2023/12/27 07:49:06;;;;;;;12.13;6.87;;;8.00;83.90;;;;;;5069824;28;20391;-71
2023/12/27 07:51:32;;;;;;;18.23;7.03;;;7.90;85.50;;;;;;5070136;28;20390;-71
2023/12/27 07:53:57;;;;;;;19.43;7.10;;;7.90;86.60;;;;;;5070272;28;20665;-71
2023/12/27 07:56:23;;;;;;;17.15;8.45;;;8.00;86.20;;;;;;5070132;28;20388;-71
2023/12/27 07:58:48;;;;;;;11.85;7.43;;;8.10;88.10;;;;;;5070137;28;20383;-71
2023/12/27 08:01:15;;;;;;;20.58;7.93;;;8.10;86.10;;;;;;5070314;28;20375;-71
2023/12/27 08:03:40;;;;;;;19.65;6.88;;;8.10;86.70;;;;;;5070082;28;20482;-71
2023/12/27 08:06:06;;;;;;;15.43;8.50;;;8.10;87.40;;;;;;5069971;28;20384;-71
2023/12/27 08:08:35;;;;;;;20.67;7.47;;;8.20;87.10;;;;;;5069787;28;20485;-71
2023/12/27 08:11:03;;;;;;;16.40;7.38;;;8.10;87.80;;;;;;5051864;28;20379;-71
2023/12/27 08:13:29;;;;;;;17.02;6.85;;;8.20;88.10;;;;;;5069808;28;20387;-71
2023/12/27 08:15:55;;;;;;;15.60;6.73;;;8.20;87.40;;;;;;5069865;28;20483;-71
2023/12/27 08:18:21;;;;;;;18.40;6.72;;;8.20;87.60;;;;;;5070699;28;20804;-71
2023/12/27 08:20:47;;;;;;;21.95;7.00;;;8.30;88.50;;;;;;5074002;28;20386;-72
2023/12/27 08:23:16;;;;;;;17.00;7.53;;;8.30;88.70;;;;;;5056292;28;20460;-72
2023/12/27 08:25:45;;;;;;;19.45;7.25;;;8.40;88.40;;;;;;5073793;28;20384;-72
2023/12/27 08:28:10;;;;;;;17.77;7.80;;;8.40;88.80;;;;;;5056684;28;20897;-72
2023/12/27 08:30:36;;;;;;;11.40;5.95;;;8.40;89.00;;;;;;5074227;28;20395;-72
2023/12/27 08:33:06;;;;;;;14.13;5.82;;;8.50;88.80;;;;;;5056024;28;20403;-72
2023/12/27 08:35:35;;;;;;;12.48;6.50;;;8.60;87.70;;;;;;5095908;22;20420;-75
2023/12/27 08:38:01;;;;;;;15.57;7.17;;;8.50;87.80;;;;;;5116352;28;20905;-75
2023/12/27 08:40:27;;;;;;;12.20;6.00;;;8.70;86.90;;;;;;5116531;28;20451;-75
2023/12/27 08:42:53;;;;;;;14.30;5.80;;;8.70;86.20;;;;;;5116081;28;20411;-74
2023/12/27 08:45:19;;;;;;;17.33;6.75;;;8.70;84.90;;;;;;5117231;28;20892;-74
2023/12/27 08:47:45;;;;;;;11.80;5.47;;;8.70;85.70;;;;;;5116753;28;20372;-73
2023/12/27 08:50:11;;;;;;;12.88;5.65;;;8.70;85.30;;;;;;5117556;28;20369;-74
2023/12/27 08:52:38;;;;;;;16.02;6.65;;;8.80;85.70;;;;;;5118376;28;20813;-73
2023/12/27 08:55:06;;;;;;;9.18;5.40;;;8.80;85.40;;;;;;5116702;28;20379;-73
2023/12/27 08:57:32;;;;;;;13.40;6.00;;;8.80;85.10;;;;;;5116027;28;20511;-73
2023/12/27 08:59:57;;;;;;;15.65;6.03;;;8.80;85.30;;;;;;5116133;28;20772;-74
2023/12/27 09:02:23;;;;;;;10.20;4.93;;;8.90;84.40;;;;;;5098547;28;20376;-74
2023/12/27 09:04:49;;;;;;;11.23;5.23;;;9.00;83.50;;;;;;5101996;28;20499;-74
2023/12/27 09:07:15;;;;;;;11.00;5.33;;;9.00;83.00;;;;;;5080938;28;20502;-73
2023/12/27 09:09:41;;;;;;;15.60;6.03;;;9.10;83.20;;;;;;5116954;28;20450;-73
2023/12/27 09:12:06;;;;;;;15.87;5.30;;;9.20;85.20;;;;;;5117464;28;20854;-74
2023/12/27 09:14:32;;;;;;;12.00;6.10;;;9.20;84.60;;;;;;5120187;28;20388;-74
2023/12/27 09:16:57;;;;;;;14.02;5.10;;;9.30;82.00;;;;;;5118882;28;20407;-74
2023/12/27 09:19:23;;;;;;;9.57;5.03;;;9.40;80.50;;;;;;5120529;28;20384;-72
2023/12/27 09:21:49;;;;;;;10.70;5.20;;;9.50;79.00;;;;;;5118131;28;20417;-72
2023/12/27 09:24:15;;;;;;;11.98;5.90;;;9.50;76.50;;;;;;5092220;28;20793;-73
2023/12/27 09:26:41;;;;;;;11.35;5.55;;;9.60;76.00;;;;;;5105302;28;20420;-72
2023/12/27 09:29:09;;;;;;;15.57;6.20;;;9.60;76.20;;;;;;5105757;28;20386;-72
2023/12/27 09:31:35;;;;;;;13.20;5.93;;;9.60;74.10;;;;;;5110867;28;20418;-73
2023/12/27 09:34:01;;;;;;;11.02;5.90;;;9.70;74.00;;;;;;5115822;28;20380;-73
2023/12/27 09:36:26;;;;;;;15.07;7.07;;;9.70;74.30;;;;;;5089277;28;20404;-74
2023/12/27 09:38:52;;;;;;;10.50;5.55;;;9.70;74.20;;;;;;5094676;28;20381;-74
2023/12/27 09:41:20;;;;;;;11.25;6.00;;;9.80;72.20;;;;;;5113164;28;20379;-74
2023/12/27 09:43:47;;;;;;;12.10;5.03;;;9.80;72.80;;;;;;5102893;28;20852;-75
2023/12/27 09:46:17;;;;;;;12.05;6.63;;;9.80;71.60;;;;;;5111954;28;20395;-76
2023/12/27 09:48:44;;;;;;;12.60;5.90;;;9.80;73.00;;;;;;5110998;28;20380;-73
2023/12/27 09:51:11;;;;;;;12.03;6.63;;;9.80;72.50;;;;;;5117454;28;20734;-74
2023/12/27 09:53:40;;;;;;;13.90;6.53;;;9.80;73.40;;;;;;5095949;28;20391;-73
2023/12/27 09:56:06;;;;;;;11.48;6.30;;;9.70;73.60;;;;;;5108312;28;20378;-74
2023/12/27 09:58:35;;;;;;;12.02;5.65;;;9.80;73.50;;;;;;5092543;28;20410;-74
2023/12/27 10:01:02;;;;;;;13.27;6.97;;;9.80;73.10;;;;;;5096840;28;20841;-72
2023/12/27 10:03:36;;;;;;;8.13;4.97;;;9.90;73.80;;;;;;5102324;28;20866;-72
2023/12/27 10:06:20;;;;;;;10.65;5.70;;;9.80;71.30;;;;;;5077793;28;20386;-73
2023/12/27 10:08:46;;;;;;;7.60;5.20;;;9.70;72.70;;;;;;5089803;28;20476;-74
2023/12/27 10:11:12;;;;;;;12.25;6.05;;;9.80;71.40;;;;;;5095830;28;20385;-74
2023/12/27 10:13:41;;;;;;;10.15;6.45;;;9.80;72.10;;;;;;5114528;28;20502;-74
2023/12/27 10:16:06;;;;;;;10.48;6.45;;;9.90;72.10;;;;;;5114618;28;20407;-74
2023/12/27 10:18:32;;;;;;;15.30;7.35;;;9.80;72.20;;;;;;5114622;28;20400;-74
2023/12/27 10:20:58;;;;;;;18.90;9.95;;;10.00;71.40;;;;;;5115363;28;20530;-73
2023/12/27 10:23:24;;;;;;;14.15;9.07;;;10.00;69.80;;;;;;5117943;28;20406;-73
2023/12/27 10:25:52;;;;;;;13.63;7.60;;;10.00;71.40;;;;;;5109699;28;20524;-75
2023/12/27 10:28:23;;;;;;;17.05;9.68;;;10.10;70.10;;;;;;5113605;28;20388;-75
2023/12/27 10:30:51;;;;;;;20.95;11.98;;;10.10;70.90;;;;;;5120106;28;20399;-74
2023/12/27 10:33:17;;;;;;;14.45;7.70;;;10.20;72.10;;;;;;5117376;28;20818;-74
2023/12/27 10:35:43;;;;;;;17.50;10.30;;;10.20;69.10;;;;;;5100573;28;20391;-74
2023/12/27 10:38:08;;;;;;;13.88;8.63;;;10.30;68.90;;;;;;5119643;28;20400;-74
2023/12/27 10:40:35;;;;;;;16.60;9.50;;;10.20;68.30;;;;;;5120086;28;20381;-74
2023/12/27 10:43:00;;;;;;;17.45;9.65;;;10.30;69.70;;;;;;5101523;28;20418;-75
2023/12/27 10:45:26;;;;;;;17.23;10.83;;;10.30;69.30;;;;;;5116954;28;20467;-74
2023/12/27 10:48:01;;;;;;;18.17;10.10;;;10.40;68.70;;;;;;5117046;28;20395;-72
2023/12/27 10:50:28;;;;;;;17.58;9.18;;;10.40;69.10;;;;;;5116766;28;20465;-74
2023/12/27 10:53:06;;;;;;;16.48;7.88;;;10.50;66.10;;;;;;5115684;28;20467;-75
2023/12/27 10:55:33;;;;;;;13.57;8.52;;;10.60;65.40;;;;;;5099021;28;20881;-73
2023/12/27 10:58:01;;;;;;;12.35;7.38;;;10.50;64.50;;;;;;5116188;28;20407;-73
2023/12/27 11:00:28;;;;;;;16.60;10.13;;;10.60;64.50;;;;;;5114472;28;20428;-76
2023/12/27 11:02:54;;;;;;;13.98;8.10;;;10.60;64.50;;;;;;5115129;28;20376;-75
2023/12/27 11:05:22;;;;;;;12.10;7.55;;;10.60;64.30;;;;;;5114952;28;20846;-74
2023/12/27 11:07:50;;;;;;;17.02;9.20;;;10.70;65.10;;;;;;5116598;28;20406;-74
2023/12/27 11:10:17;;;;;;;14.33;9.70;;;10.70;64.80;;;;;;5115642;28;20407;-73
2023/12/27 11:12:46;;;;;;;20.97;10.80;;;10.80;62.80;;;;;;5114529;28;20376;-73
2023/12/27 11:15:13;;;;;;;12.77;8.10;;;10.90;61.70;;;;;;5116393;28;20372;-74
2023/12/27 11:17:40;;;;;;;8.32;5.72;;;10.80;61.60;;;;;;5116314;28;20441;-74
2023/12/27 11:20:14;;;;;;;14.02;8.40;;;10.90;60.30;;;;;;5101946;28;20385;-74
2023/12/27 11:22:41;;;;;;;15.90;10.30;;;10.90;61.80;;;;;;5119037;28;20400;-75
2023/12/27 11:25:07;;;;;;;21.47;12.17;;;10.90;61.70;;;;;;5115264;28;20380;-73
2023/12/27 11:27:33;;;;;;;18.33;11.30;;;11.00;62.10;;;;;;5095962;28;20413;-73
2023/12/27 11:30:00;;;;;;;19.25;11.00;;;11.10;60.30;;;;;;5095131;28;20391;-74
2023/12/27 11:32:27;;;;;;;19.02;11.98;;;11.20;59.40;;;;;;5113307;28;20468;-74
2023/12/27 11:34:59;;;;;;;15.60;8.97;;;11.10;60.20;;;;;;5113797;28;20380;-73
2023/12/27 11:37:27;;;;;;;19.23;11.07;;;11.20;59.50;;;;;;5112461;28;20870;-75
2023/12/27 11:39:53;;;;;;;19.67;10.70;;;11.20;59.50;;;;;;5113219;28;20383;-75
2023/12/27 11:42:18;;;;;;;37.88;22.00;;;11.30;59.10;;;;;;5113581;28;20412;-74
2023/12/27 11:44:48;;;;;;;16.83;10.55;;;11.40;60.00;;;;;;5114726;28;20541;-75
2023/12/27 11:47:17;;;;;;;13.48;7.90;;;11.40;58.40;;;;;;5118174;28;20408;-73
2023/12/27 11:50:13;;;;;;;12.95;9.07;;;11.40;57.70;;;;;;5113266;28;20404;-74
2023/12/27 11:52:44;;;;;;;12.52;7.78;;;11.30;58.40;;;;;;5115541;28;20377;-73
2023/12/27 11:55:24;;;;;;;11.07;7.45;;;11.30;57.00;;;;;;5113034;28;20866;-75
2023/12/27 11:57:57;;;;;;;16.73;10.45;;;11.30;57.10;;;;;;5114397;28;20426;-76
2023/12/27 12:00:25;;;;;;;26.35;16.15;;;11.30;57.50;;;;;;5121310;28;20387;-75
2023/12/27 12:02:57;;;;;;;15.02;9.68;;;11.20;58.80;;;;;;5083342;28;20377;-74
2023/12/27 12:05:57;;;;;;;21.52;13.48;;;11.20;58.30;;;;;;5093358;28;20382;-75
2023/12/27 12:08:43;;;;;;;16.58;10.38;;;11.20;59.10;;;;;;5094459;28;20391;-74
2023/12/27 12:11:12;;;;;;;28.05;16.13;;;11.20;57.70;;;;;;5093201;28;21116;-75
2023/12/27 12:13:39;;;;;;;16.38;11.18;;;11.30;59.80;;;;;;5093528;28;20427;-75
2023/12/27 12:16:06;;;;;;;17.70;10.38;;;11.40;57.60;;;;;;5096085;28;20387;-74
2023/12/27 12:18:34;;;;;;;14.43;9.43;;;11.40;56.90;;;;;;5077211;28;20469;-74
2023/12/27 12:20:59;;;;;;;12.38;8.48;;;11.40;56.50;;;;;;5074110;28;20379;-73
2023/12/27 12:23:29;;;;;;;13.85;8.15;;;11.30;56.50;;;;;;5098108;28;20389;-75
2023/12/27 12:26:02;;;;;;;21.00;13.43;;;11.40;55.40;;;;;;5096544;28;20370;-74
2023/12/27 12:28:29;;;;;;;25.83;15.27;;;11.30;57.20;;;;;;5097602;28;20393;-75
2023/12/27 12:30:59;;;;;;;18.85;11.70;;;11.40;55.80;;;;;;5095866;28;20382;-74
2023/12/27 12:33:25;;;;;;;21.00;13.43;;;11.30;55.60;;;;;;5075682;28;20561;-74
2023/12/27 12:35:53;;;;;;;16.37;8.47;;;11.20;55.90;;;;;;5092628;28;20785;-74
2023/12/27 12:38:20;;;;;;;19.02;11.30;;;11.30;55.50;;;;;;5093799;28;20406;-73
2023/12/27 12:40:45;;;;;;;13.60;8.90;;;11.20;56.20;;;;;;5092607;28;20769;-74